Time;durP1;ratioP1;P1;durP2;ratioP2;P2;SDS_P1;SDS_P2;PMS_P1;PMS_P2;Temp;Humidity;BMP_temperature;BMP_pressure;BME280_temperature;BME280_humidity;BME280_pressure;Samples;Min_cycle;Max_cycle;Signal;HPM_P1;HPM_P2
2023/01/28 00:00:36;;;;;;;8.45;4.35;;;4.60;73.20;;;;;;5008150;28;20054;-82
2023/01/28 00:03:03;;;;;;;8.35;4.65;;;4.50;73.20;;;;;;5009926;28;20054;-82
2023/01/28 00:05:33;;;;;;;9.13;5.00;;;4.50;73.30;;;;;;5009672;28;20057;-83
2023/01/28 00:08:00;;;;;;;7.75;4.25;;;4.50;73.50;;;;;;4993644;28;20058;-83
2023/01/28 00:10:28;;;;;;;8.20;4.50;;;4.50;73.90;;;;;;5009320;28;20050;-83
2023/01/28 00:12:55;;;;;;;7.40;4.38;;;4.50;73.70;;;;;;4991333;28;20568;-83
2023/01/28 00:15:24;;;;;;;8.15;4.60;;;4.60;73.60;;;;;;5008753;28;20081;-82
2023/01/28 00:17:51;;;;;;;8.00;4.95;;;4.50;73.40;;;;;;5006627;28;20058;-83
2023/01/28 00:20:18;;;;;;;8.55;4.65;;;4.50;73.40;;;;;;5008930;28;20142;-83
2023/01/28 00:22:48;;;;;;;7.87;4.73;;;4.60;73.40;;;;;;5010250;28;20180;-83
2023/01/28 00:25:15;;;;;;;8.82;4.60;;;4.60;73.50;;;;;;4993139;28;20129;-83
2023/01/28 00:27:43;;;;;;;9.05;5.25;;;4.60;73.90;;;;;;5009454;28;20074;-83
2023/01/28 00:30:12;;;;;;;8.20;4.70;;;4.60;73.80;;;;;;4992719;28;20050;-83
2023/01/28 00:32:39;;;;;;;8.02;4.55;;;4.60;73.60;;;;;;5009557;28;20055;-83
2023/01/28 00:35:07;;;;;;;9.00;5.30;;;4.60;73.60;;;;;;4991548;28;20051;-83
2023/01/28 00:37:35;;;;;;;7.88;4.47;;;4.60;73.70;;;;;;4991970;28;20140;-83
2023/01/28 00:40:02;;;;;;;8.48;4.90;;;4.50;72.50;;;;;;5008957;28;20054;-83
2023/01/28 00:42:29;;;;;;;9.10;5.50;;;4.50;72.30;;;;;;5008636;28;20047;-83
2023/01/28 00:44:58;;;;;;;7.93;4.65;;;4.50;72.40;;;;;;4992539;28;20054;-83
2023/01/28 00:47:25;;;;;;;7.80;4.77;;;4.50;72.60;;;;;;4992488;28;20125;-83
2023/01/28 00:49:53;;;;;;;9.25;5.10;;;4.50;72.70;;;;;;4992100;28;20145;-83
2023/01/28 00:52:20;;;;;;;9.48;4.95;;;4.50;72.60;;;;;;5007189;28;20095;-83
2023/01/28 00:54:46;;;;;;;8.70;5.30;;;4.50;72.70;;;;;;5008865;28;20065;-83
2023/01/28 00:57:13;;;;;;;8.32;5.40;;;4.40;72.50;;;;;;5001227;28;20517;-83
2023/01/28 00:59:40;;;;;;;8.83;5.33;;;4.40;72.30;;;;;;4992516;28;20058;-83
2023/01/28 01:02:12;;;;;;;7.82;5.25;;;4.40;72.30;;;;;;4991746;28;20611;-82
2023/01/28 01:04:39;;;;;;;8.63;5.63;;;4.40;72.50;;;;;;4993326;28;20062;-83
2023/01/28 01:07:06;;;;;;;8.77;5.25;;;4.40;72.60;;;;;;4992192;28;20057;-83
2023/01/28 01:09:33;;;;;;;9.00;5.10;;;4.40;72.30;;;;;;4990588;28;20695;-83
2023/01/28 01:12:00;;;;;;;9.90;5.67;;;4.40;72.30;;;;;;5008660;28;20054;-82
2023/01/28 01:14:27;;;;;;;10.20;6.03;;;4.40;72.00;;;;;;4992228;28;20141;-83
2023/01/28 01:16:54;;;;;;;9.45;6.00;;;4.40;72.40;;;;;;4991817;28;20182;-83
2023/01/28 01:19:22;;;;;;;9.43;5.90;;;4.30;72.80;;;;;;4991479;28;20057;-83
2023/01/28 01:21:49;;;;;;;10.68;5.88;;;4.40;73.20;;;;;;4991563;28;20053;-83
2023/01/28 01:24:16;;;;;;;9.93;5.67;;;4.40;73.40;;;;;;4991492;28;20078;-83
2023/01/28 01:26:43;;;;;;;10.57;5.97;;;4.40;74.20;;;;;;4990615;28;20074;-83
2023/01/28 01:29:10;;;;;;;9.98;5.90;;;4.40;73.80;;;;;;5008266;28;20101;-83
2023/01/28 01:31:37;;;;;;;9.20;5.72;;;4.40;73.30;;;;;;4991900;28;20102;-82
2023/01/28 01:34:04;;;;;;;10.80;6.10;;;4.40;73.00;;;;;;4992048;28;20050;-83
2023/01/28 01:36:32;;;;;;;10.87;5.87;;;4.40;72.70;;;;;;5007873;28;20678;-83
2023/01/28 01:38:59;;;;;;;10.35;5.65;;;4.40;72.80;;;;;;5008244;28;20170;-83
2023/01/28 01:41:29;;;;;;;9.50;5.88;;;4.40;73.00;;;;;;4991933;28;20124;-83
2023/01/28 01:43:58;;;;;;;8.88;5.63;;;4.40;72.70;;;;;;5006576;28;20136;-83
2023/01/28 01:46:31;;;;;;;9.45;5.18;;;4.40;72.70;;;;;;4972001;28;20058;-83
2023/01/28 01:49:03;;;;;;;10.47;5.57;;;4.40;72.70;;;;;;4972450;28;20090;-83
2023/01/28 01:51:35;;;;;;;10.75;6.32;;;4.40;72.60;;;;;;4991552;28;20192;-83
2023/01/28 01:54:04;;;;;;;9.57;5.60;;;4.40;72.60;;;;;;5007706;28;20082;-83
2023/01/28 01:56:38;;;;;;;9.95;5.70;;;4.40;72.80;;;;;;5007656;28;20062;-83
2023/01/28 01:59:06;;;;;;;11.85;5.93;;;4.40;73.10;;;;;;4991225;28;20066;-83
2023/01/28 02:01:33;;;;;;;8.40;5.13;;;4.40;73.40;;;;;;4990189;28;20587;-83
2023/01/28 02:04:05;;;;;;;8.70;5.90;;;4.40;73.80;;;;;;4991181;28;20518;-83
2023/01/28 02:06:36;;;;;;;8.38;5.18;;;4.40;73.60;;;;;;5007644;28;20062;-83
2023/01/28 02:09:03;;;;;;;9.32;5.32;;;4.40;73.80;;;;;;4991303;28;20137;-82
2023/01/28 02:11:33;;;;;;;8.20;5.13;;;4.40;73.30;;;;;;5007481;28;20082;-83
2023/01/28 02:14:04;;;;;;;8.97;5.47;;;4.40;72.70;;;;;;5007330;28;20142;-83
2023/01/28 02:16:31;;;;;;;8.38;4.97;;;4.30;72.40;;;;;;4991403;28;20508;-83
2023/01/28 02:18:58;;;;;;;9.32;5.40;;;4.30;73.00;;;;;;4990285;28;20078;-83
2023/01/28 02:21:45;;;;;;;8.43;5.28;;;4.30;72.90;;;;;;4991138;28;20063;-83
2023/01/28 02:24:35;;;;;;;8.63;5.35;;;4.30;72.80;;;;;;4991124;28;20401;-83
2023/01/28 02:27:20;;;;;;;9.47;5.97;;;4.30;73.60;;;;;;4990747;28;20050;-83
2023/01/28 02:29:56;;;;;;;8.52;5.60;;;4.30;73.40;;;;;;4990807;28;20090;-83
2023/01/28 02:32:29;;;;;;;9.55;6.00;;;4.30;73.60;;;;;;5002424;28;20981;-83
2023/01/28 02:35:01;;;;;;;8.65;5.32;;;4.30;73.70;;;;;;4990690;28;20046;-83
2023/01/28 02:37:36;;;;;;;8.88;5.25;;;4.30;73.80;;;;;;4989337;28;20055;-83
2023/01/28 02:40:09;;;;;;;9.67;5.97;;;4.30;73.80;;;;;;4990705;28;20540;-83
2023/01/28 02:42:39;;;;;;;7.55;5.10;;;4.30;73.60;;;;;;4990151;28;20047;-83
2023/01/28 02:45:16;;;;;;;7.45;4.88;;;4.30;73.20;;;;;;4990600;28;20505;-83
2023/01/28 02:47:57;;;;;;;8.23;4.55;;;4.30;72.80;;;;;;4971325;28;20082;-83
2023/01/28 02:50:31;;;;;;;7.50;4.95;;;4.30;72.60;;;;;;5000913;28;20050;-82
2023/01/28 02:56:19;;;;;;;8.45;5.00;;;4.20;72.00;;;;;;4971938;28;20128;-83
2023/01/28 02:58:56;;;;;;;7.60;4.65;;;4.20;72.20;;;;;;4990613;28;20544;-82
2023/01/28 03:01:30;;;;;;;8.07;4.90;;;4.20;72.30;;;;;;4993394;28;20050;-82
2023/01/28 03:03:59;;;;;;;9.50;5.22;;;4.20;72.50;;;;;;4993965;28;20074;-83
2023/01/28 03:06:33;;;;;;;7.70;4.60;;;4.20;72.50;;;;;;4993700;28;20064;-83
2023/01/28 03:37:01;;;;;;;8.80;5.68;;;4.20;72.80;;;;;;4993551;28;20532;-83
2023/01/28 03:39:49;;;;;;;8.60;5.40;;;4.10;73.00;;;;;;4993152;28;20057;-83
2023/01/28 03:42:18;;;;;;;9.40;5.60;;;4.10;72.80;;;;;;4993655;28;20082;-83
2023/01/28 03:45:14;;;;;;;8.95;5.40;;;4.10;73.00;;;;;;4999999;28;20058;-83
2023/01/28 03:47:42;;;;;;;9.03;5.47;;;4.10;73.40;;;;;;4991899;28;20043;-83
2023/01/28 03:50:13;;;;;;;8.50;4.90;;;4.10;72.90;;;;;;4992750;28;20054;-82
2023/01/28 03:52:50;;;;;;;7.97;5.13;;;4.10;72.80;;;;;;5009311;28;20061;-83
2023/01/28 03:55:32;;;;;;;9.07;5.50;;;4.10;72.70;;;;;;4993019;28;20133;-83
2023/01/28 03:57:58;;;;;;;8.60;4.80;;;4.10;73.10;;;;;;4993117;28;20524;-83
2023/01/28 04:00:26;;;;;;;7.60;4.17;;;4.10;73.10;;;;;;5009047;28;20161;-83
2023/01/28 04:02:55;;;;;;;7.25;4.18;;;4.10;72.70;;;;;;4993144;28;20054;-82
2023/01/28 04:05:24;;;;;;;8.75;4.53;;;4.10;73.00;;;;;;4991760;28;20057;-83
2023/01/28 04:07:54;;;;;;;8.52;4.47;;;4.10;73.30;;;;;;4993242;28;20049;-83
2023/01/28 04:10:54;;;;;;;7.07;3.67;;;4.10;73.40;;;;;;4980699;28;20501;-83
2023/01/28 04:13:27;;;;;;;8.97;4.30;;;4.10;73.40;;;;;;4992758;28;20057;-82
2023/01/28 04:15:54;;;;;;;8.70;4.15;;;4.10;72.50;;;;;;4992429;28;20468;-83
2023/01/28 04:18:26;;;;;;;7.63;3.78;;;4.10;72.50;;;;;;4992931;28;20054;-83
2023/01/28 04:20:55;;;;;;;7.00;3.88;;;4.10;72.50;;;;;;4990840;28;20047;-83
2023/01/28 04:23:22;;;;;;;9.65;4.30;;;4.10;72.80;;;;;;4992700;28;20050;-83
2023/01/28 04:25:50;;;;;;;8.37;4.60;;;4.10;72.90;;;;;;4973355;28;20081;-82
2023/01/28 04:28:18;;;;;;;8.07;4.10;;;4.10;72.80;;;;;;4989497;28;20105;-83
2023/01/28 04:30:45;;;;;;;8.85;4.47;;;4.10;73.00;;;;;;4991443;28;20464;-83
2023/01/28 04:33:35;;;;;;;7.68;4.60;;;4.10;73.40;;;;;;4992392;28;20133;-83
2023/01/28 04:36:24;;;;;;;8.10;4.60;;;4.10;74.00;;;;;;5008464;28;20065;-82
2023/01/28 04:39:04;;;;;;;7.87;4.60;;;4.10;73.30;;;;;;4990809;28;20488;-82
2023/01/28 04:41:37;;;;;;;7.50;4.25;;;4.10;73.10;;;;;;5008755;28;20492;-82
2023/01/28 04:44:12;;;;;;;7.88;4.35;;;4.10;72.90;;;;;;4991973;28;20060;-82
2023/01/28 04:47:02;;;;;;;9.48;4.57;;;4.10;72.60;;;;;;4991979;28;20051;-82
2023/01/28 04:49:52;;;;;;;7.30;3.75;;;4.00;72.30;;;;;;5010832;28;20053;-82
2023/01/28 04:52:39;;;;;;;7.67;4.37;;;4.00;72.20;;;;;;4991760;28;20051;-82
2023/01/28 04:55:18;;;;;;;7.88;4.63;;;4.00;72.30;;;;;;4991838;28;20054;-82
2023/01/28 04:57:47;;;;;;;8.60;4.82;;;4.00;72.30;;;;;;5003518;28;21054;-82
2023/01/28 05:00:15;;;;;;;8.55;4.55;;;4.00;72.20;;;;;;4989163;28;20069;-83
2023/01/28 05:02:42;;;;;;;7.32;4.60;;;4.00;72.10;;;;;;4992012;28;20055;-83
2023/01/28 05:05:09;;;;;;;8.90;4.57;;;3.90;72.10;;;;;;4991669;28;21406;-83
2023/01/28 05:08:05;;;;;;;8.15;3.95;;;3.90;72.20;;;;;;4992338;28;20062;-83
2023/01/28 05:10:32;;;;;;;9.77;4.43;;;3.90;72.10;;;;;;4991685;28;20050;-83
2023/01/28 05:12:59;;;;;;;8.30;4.50;;;3.90;72.10;;;;;;4990559;28;20054;-83
2023/01/28 05:15:27;;;;;;;8.00;4.68;;;3.90;71.90;;;;;;4992126;28;20650;-83
2023/01/28 05:17:56;;;;;;;9.13;4.80;;;3.90;71.40;;;;;;4991425;28;20085;-83
2023/01/28 05:20:24;;;;;;;8.68;5.10;;;3.90;71.70;;;;;;4991472;28;20096;-83
2023/01/28 05:22:51;;;;;;;9.82;5.45;;;3.90;71.90;;;;;;4990551;28;20058;-83
2023/01/28 05:25:22;;;;;;;9.45;5.20;;;3.90;72.00;;;;;;4991379;28;20055;-83
2023/01/28 05:27:51;;;;;;;8.52;5.03;;;3.80;71.90;;;;;;4991714;28;20132;-83
2023/01/28 05:30:18;;;;;;;8.60;4.90;;;3.90;72.00;;;;;;4989575;28;20520;-83
2023/01/28 05:32:45;;;;;;;7.38;4.68;;;3.90;72.10;;;;;;4991436;28;20054;-83
2023/01/28 05:35:14;;;;;;;8.57;4.20;;;3.80;71.90;;;;;;4991712;28;20138;-83
2023/01/28 05:37:41;;;;;;;10.52;4.70;;;3.70;71.80;;;;;;4991285;28;20437;-82
2023/01/28 05:40:10;;;;;;;7.70;4.20;;;3.70;71.60;;;;;;4991137;28;20638;-83
2023/01/28 05:42:38;;;;;;;7.23;4.17;;;3.70;71.70;;;;;;4991262;28;20050;-83
2023/01/28 05:45:21;;;;;;;8.15;4.63;;;3.70;71.60;;;;;;4991167;28;20053;-83
2023/01/28 05:48:07;;;;;;;8.00;4.88;;;3.60;71.50;;;;;;4989794;28;20061;-83
2023/01/28 05:50:52;;;;;;;7.85;4.63;;;3.60;71.50;;;;;;5006886;28;20050;-82
2023/01/28 05:53:21;;;;;;;8.30;5.10;;;3.60;71.40;;;;;;4990855;28;20540;-83
2023/01/28 05:55:52;;;;;;;8.97;5.10;;;3.50;71.40;;;;;;4991207;28;20050;-82
2023/01/28 05:58:21;;;;;;;7.80;4.72;;;3.50;71.50;;;;;;4990771;28;20058;-82
2023/01/28 06:00:48;;;;;;;7.80;4.50;;;3.50;71.40;;;;;;4990773;28;20046;-82
2023/01/28 06:03:18;;;;;;;7.63;4.15;;;3.40;71.60;;;;;;4990742;28;20054;-83
2023/01/28 06:05:46;;;;;;;7.70;4.43;;;3.40;71.70;;;;;;5005632;28;20050;-83
2023/01/28 06:08:12;;;;;;;7.13;3.93;;;3.50;71.90;;;;;;4990924;28;20141;-83
2023/01/28 06:10:39;;;;;;;8.73;4.20;;;3.40;72.10;;;;;;4990611;28;20055;-82
2023/01/28 06:13:06;;;;;;;6.88;4.15;;;3.40;72.00;;;;;;4991011;28;20547;-82
2023/01/28 06:16:05;;;;;;;7.72;4.38;;;3.30;72.00;;;;;;4965325;28;20066;-83
2023/01/28 06:18:44;;;;;;;8.85;4.32;;;3.30;72.20;;;;;;4983025;28;20098;-83
2023/01/28 06:21:10;;;;;;;8.83;5.20;;;3.30;72.20;;;;;;5006665;28;20062;-82
2023/01/28 06:23:37;;;;;;;8.77;5.05;;;3.30;71.90;;;;;;4989553;28;20578;-83
2023/01/28 06:26:08;;;;;;;10.98;5.50;;;3.30;72.00;;;;;;4991103;28;20054;-82
2023/01/28 06:28:37;;;;;;;11.00;5.55;;;3.30;71.90;;;;;;4990599;28;20061;-83
2023/01/28 06:31:06;;;;;;;9.40;5.57;;;3.30;71.80;;;;;;5006751;28;20587;-83
2023/01/28 06:33:32;;;;;;;10.40;5.57;;;3.30;71.70;;;;;;5007279;28;20081;-82
2023/01/28 06:36:02;;;;;;;10.90;5.75;;;3.20;71.70;;;;;;5010259;28;20092;-82
2023/01/28 06:38:29;;;;;;;10.32;5.47;;;3.20;71.70;;;;;;5010634;28;20137;-82
2023/01/28 06:40:57;;;;;;;11.00;5.65;;;3.10;71.70;;;;;;5008506;28;20112;-82
2023/01/28 06:43:26;;;;;;;11.05;6.00;;;3.10;71.60;;;;;;4993878;28;20050;-82
2023/01/28 06:45:53;;;;;;;11.47;5.73;;;3.10;71.40;;;;;;4994225;28;20145;-82
2023/01/28 06:48:22;;;;;;;11.50;6.40;;;3.00;71.50;;;;;;4994238;28;20053;-82
2023/01/28 06:50:49;;;;;;;10.60;5.88;;;2.90;71.70;;;;;;5009912;28;20141;-82
2023/01/28 06:53:16;;;;;;;10.57;5.93;;;2.90;71.90;;;;;;5010058;28;20572;-82
2023/01/28 06:55:43;;;;;;;10.43;5.80;;;2.80;72.20;;;;;;5009854;28;20050;-82
2023/01/28 06:58:10;;;;;;;10.50;5.10;;;2.80;72.10;;;;;;5008607;28;20051;-82
2023/01/28 07:00:38;;;;;;;11.10;5.45;;;2.80;72.20;;;;;;5009889;28;20508;-82
2023/01/28 07:03:05;;;;;;;10.05;5.10;;;2.80;72.20;;;;;;5010243;28;20050;-82
2023/01/28 07:05:34;;;;;;;11.70;6.20;;;2.80;72.10;;;;;;5009918;28;20149;-82
2023/01/28 07:08:01;;;;;;;10.32;5.53;;;2.80;72.00;;;;;;5009720;28;20486;-82
2023/01/28 07:10:28;;;;;;;9.07;4.17;;;2.70;72.50;;;;;;5009492;28;20065;-84
2023/01/28 07:12:55;;;;;;;10.05;4.97;;;2.70;72.50;;;;;;5009837;28;20153;-82
2023/01/28 07:15:22;;;;;;;9.18;4.95;;;2.60;72.40;;;;;;5007922;28;20052;-82
2023/01/28 07:17:49;;;;;;;10.15;5.13;;;2.50;72.30;;;;;;5009701;28;20570;-82
2023/01/28 07:20:17;;;;;;;11.18;5.68;;;2.50;72.60;;;;;;5009299;28;20117;-82
2023/01/28 07:22:45;;;;;;;11.07;5.60;;;2.50;72.70;;;;;;5016910;28;20050;-82
2023/01/28 07:25:14;;;;;;;10.55;4.80;;;2.50;72.80;;;;;;5017965;28;20154;-82
2023/01/28 07:27:47;;;;;;;14.90;6.07;;;2.50;72.80;;;;;;5019398;28;20066;-82
2023/01/28 07:30:15;;;;;;;11.63;5.80;;;2.40;72.80;;;;;;5015511;28;20547;-82
2023/01/28 07:32:42;;;;;;;10.35;5.85;;;2.40;72.90;;;;;;4999545;28;20141;-82
2023/01/28 07:35:09;;;;;;;11.53;5.60;;;2.40;73.20;;;;;;5017489;28;20110;-81
2023/01/28 07:37:36;;;;;;;11.25;5.60;;;2.40;73.30;;;;;;5020633;28;20113;-82
2023/01/28 07:40:05;;;;;;;11.93;5.30;;;2.40;73.20;;;;;;5018536;28;20054;-83
2023/01/28 07:42:32;;;;;;;12.23;5.80;;;2.40;73.40;;;;;;5009224;28;20176;-82
2023/01/28 07:45:05;;;;;;;10.73;5.25;;;2.40;73.60;;;;;;4997448;28;20054;-82
2023/01/28 07:47:32;;;;;;;10.27;5.47;;;2.40;73.50;;;;;;5019483;28;20057;-82
2023/01/28 07:49:59;;;;;;;10.57;5.57;;;2.40;73.50;;;;;;4996517;28;20042;-82
2023/01/28 07:52:26;;;;;;;10.15;4.93;;;2.50;73.40;;;;;;5025464;28;20112;-82
2023/01/28 07:54:53;;;;;;;11.00;5.70;;;2.50;73.50;;;;;;5026944;28;20140;-82
2023/01/28 07:57:23;;;;;;;10.90;5.13;;;2.50;73.50;;;;;;5007891;28;20481;-82
2023/01/28 07:59:50;;;;;;;11.63;5.60;;;2.50;73.70;;;;;;5007317;28;20063;-82
2023/01/28 08:02:17;;;;;;;10.93;5.10;;;2.50;73.70;;;;;;5007863;28;20051;-82
2023/01/28 08:04:46;;;;;;;11.70;5.65;;;2.50;73.70;;;;;;5005278;28;20085;-81
2023/01/28 08:07:13;;;;;;;10.30;5.40;;;2.50;73.80;;;;;;5004856;28;20126;-82
2023/01/28 08:09:40;;;;;;;10.25;5.40;;;2.50;73.80;;;;;;4999426;28;20588;-82
2023/01/28 08:12:07;;;;;;;8.77;4.73;;;2.50;73.80;;;;;;5014908;28;20057;-82
2023/01/28 08:14:35;;;;;;;11.07;5.68;;;2.50;73.70;;;;;;5009848;28;20500;-82
2023/01/28 08:17:02;;;;;;;12.38;5.95;;;2.50;73.60;;;;;;5015581;28;20042;-82
2023/01/28 08:19:29;;;;;;;11.77;6.13;;;2.50;73.50;;;;;;5019361;28;20043;-84
2023/01/28 08:21:56;;;;;;;10.52;5.55;;;2.50;73.50;;;;;;5015152;28;20121;-82
2023/01/28 08:24:23;;;;;;;10.87;5.67;;;2.50;73.50;;;;;;5013637;28;20047;-81
2023/01/28 08:26:50;;;;;;;10.80;5.88;;;2.50;73.60;;;;;;5000814;28;20069;-81
2023/01/28 08:29:17;;;;;;;10.98;5.93;;;2.50;73.60;;;;;;5017115;28;20093;-82
2023/01/28 08:31:45;;;;;;;11.98;5.50;;;2.50;73.70;;;;;;5014361;28;20144;-81
2023/01/28 08:34:12;;;;;;;12.50;5.78;;;2.50;73.70;;;;;;5017995;28;20046;-82
2023/01/28 08:36:39;;;;;;;11.60;5.80;;;2.50;73.80;;;;;;5018331;28;20062;-84
2023/01/28 08:39:06;;;;;;;10.27;5.03;;;2.50;73.90;;;;;;5000709;28;20481;-84
2023/01/28 08:41:33;;;;;;;11.70;5.40;;;2.50;73.90;;;;;;5003526;28;20144;-84
2023/01/28 08:44:00;;;;;;;12.13;5.57;;;2.50;74.00;;;;;;5008051;28;20094;-84
2023/01/28 08:46:27;;;;;;;11.43;5.78;;;2.50;74.10;;;;;;5008834;28;20695;-84
2023/01/28 08:48:55;;;;;;;10.77;4.87;;;2.50;74.10;;;;;;5008809;28;20058;-84
2023/01/28 08:51:22;;;;;;;9.45;4.63;;;2.50;74.10;;;;;;4992102;28;20635;-84
2023/01/28 08:53:49;;;;;;;8.65;4.15;;;2.50;74.00;;;;;;5008653;28;20140;-85
2023/01/28 08:56:16;;;;;;;9.70;4.65;;;2.50;74.10;;;;;;5008768;28;20133;-84
2023/01/28 08:58:43;;;;;;;6.45;2.60;;;2.50;73.90;;;;;;4992110;28;20515;-85
2023/01/28 09:01:10;;;;;;;9.13;3.80;;;2.50;73.80;;;;;;5007375;28;20579;-84
2023/01/28 09:03:37;;;;;;;8.52;3.95;;;2.40;74.00;;;;;;5008219;28;20121;-84
2023/01/28 09:06:06;;;;;;;7.70;3.70;;;2.40;73.80;;;;;;5009039;28;20093;-85
2023/01/28 09:08:33;;;;;;;8.65;3.55;;;2.30;73.70;;;;;;4992083;28;20054;-85
2023/01/28 09:11:01;;;;;;;8.93;3.67;;;2.30;74.30;;;;;;5008222;28;20133;-83
2023/01/28 09:13:28;;;;;;;7.20;2.90;;;2.20;74.50;;;;;;5008491;28;20559;-84
2023/01/28 09:15:56;;;;;;;5.93;2.15;;;2.20;74.50;;;;;;4992319;28;20510;-84
2023/01/28 09:18:23;;;;;;;8.40;4.03;;;2.20;74.40;;;;;;4995460;28;20046;-82
2023/01/28 09:20:50;;;;;;;7.18;3.22;;;2.20;74.60;;;;;;5000056;28;20058;-84
2023/01/28 09:23:18;;;;;;;8.98;3.88;;;2.20;74.80;;;;;;5016729;28;20074;-81
2023/01/28 09:25:45;;;;;;;5.90;2.60;;;2.20;75.00;;;;;;5017111;28;20105;-81
2023/01/28 09:28:12;;;;;;;6.75;3.35;;;2.20;75.10;;;;;;5008857;28;20497;-82
2023/01/28 09:30:39;;;;;;;6.13;2.22;;;2.20;74.90;;;;;;5014464;28;20051;-84
2023/01/28 09:33:06;;;;;;;10.95;4.75;;;2.20;74.90;;;;;;4998884;28;20443;-85
2023/01/28 09:35:34;;;;;;;8.20;3.72;;;2.20;74.90;;;;;;4997820;28;20055;-83
2023/01/28 09:38:01;;;;;;;9.90;4.73;;;2.20;75.00;;;;;;5019754;28;20078;-82
2023/01/28 09:40:35;;;;;;;8.32;4.00;;;2.20;75.10;;;;;;5024932;28;20058;-83
2023/01/28 09:43:39;;;;;;;9.60;4.55;;;2.20;75.10;;;;;;5013716;28;20134;-83
2023/01/28 09:46:10;;;;;;;6.90;3.03;;;2.20;75.00;;;;;;4992174;28;20070;-81
2023/01/28 09:48:41;;;;;;;5.65;2.42;;;2.20;75.10;;;;;;4992086;28;21124;-83
2023/01/28 09:51:11;;;;;;;4.77;1.27;;;2.10;75.70;;;;;;4989977;28;20591;-84
2023/01/28 09:53:43;;;;;;;8.52;3.05;;;2.10;75.80;;;;;;4991591;28;20069;-84
2023/01/28 09:56:15;;;;;;;11.70;5.05;;;2.20;76.10;;;;;;4991799;28;20504;-84
2023/01/28 09:58:42;;;;;;;11.02;4.60;;;2.20;75.90;;;;;;5008477;28;20121;-84
2023/01/28 10:01:31;;;;;;;11.43;5.25;;;2.20;76.00;;;;;;4991260;28;20057;-83
2023/01/28 10:04:06;;;;;;;9.83;4.80;;;2.30;76.00;;;;;;5007825;28;20062;-85
2023/01/28 10:06:47;;;;;;;9.05;4.85;;;2.40;75.90;;;;;;5008277;28;20058;-84
2023/01/28 10:09:28;;;;;;;10.27;4.78;;;2.40;75.80;;;;;;5010246;28;20146;-83
2023/01/28 10:12:11;;;;;;;8.90;4.97;;;2.40;75.70;;;;;;4996785;28;20112;-83
2023/01/28 10:14:53;;;;;;;10.27;4.95;;;2.50;75.60;;;;;;5015236;28;20113;-84
2023/01/28 10:17:26;;;;;;;10.73;5.30;;;2.50;75.70;;;;;;5014359;28;20054;-82
2023/01/28 10:19:57;;;;;;;9.02;4.30;;;2.60;75.60;;;;;;5013458;28;20102;-81
2023/01/28 10:22:28;;;;;;;8.68;4.20;;;2.70;75.60;;;;;;5013407;28;20136;-84
2023/01/28 10:25:00;;;;;;;8.25;4.00;;;2.80;75.50;;;;;;5015362;28;20143;-83
2023/01/28 10:27:31;;;;;;;8.02;4.35;;;2.90;75.20;;;;;;5011644;28;20062;-82
2023/01/28 10:30:00;;;;;;;6.63;2.90;;;2.90;75.20;;;;;;5020981;28;20046;-83
2023/01/28 10:32:32;;;;;;;8.15;4.50;;;3.00;75.10;;;;;;5012778;28;20058;-83
2023/01/28 10:35:00;;;;;;;8.45;3.78;;;3.00;75.00;;;;;;5014794;28;20062;-83
2023/01/28 10:37:28;;;;;;;8.98;3.65;;;3.10;74.90;;;;;;5015802;28;20095;-81
2023/01/28 10:39:58;;;;;;;8.68;4.38;;;3.10;74.80;;;;;;5007465;28;20592;-82
2023/01/28 10:42:30;;;;;;;8.63;3.60;;;3.20;74.40;;;;;;4990654;28;20066;-80
2023/01/28 10:45:01;;;;;;;7.95;4.03;;;3.30;74.10;;;;;;5005280;28;20070;-81
2023/01/28 10:47:33;;;;;;;8.10;3.67;;;3.30;74.00;;;;;;5007096;28;20338;-81
2023/01/28 10:50:01;;;;;;;8.60;2.92;;;3.40;74.10;;;;;;5005263;28;20073;-80
2023/01/28 10:52:28;;;;;;;6.00;2.80;;;3.50;74.20;;;;;;5006180;28;20054;-81
2023/01/28 10:55:00;;;;;;;6.73;2.73;;;3.50;74.20;;;;;;5010904;28;20078;-83
2023/01/28 10:57:29;;;;;;;9.85;3.90;;;3.60;73.60;;;;;;5000785;28;20695;-85
2023/01/28 10:59:56;;;;;;;9.98;5.15;;;3.70;73.30;;;;;;4996699;28;20056;-85
2023/01/28 11:02:31;;;;;;;11.25;4.75;;;3.80;72.90;;;;;;5015627;28;20061;-84
2023/01/28 11:05:07;;;;;;;10.90;5.50;;;3.90;72.70;;;;;;4994796;28;20046;-85
2023/01/28 11:07:34;;;;;;;10.13;4.53;;;3.90;72.50;;;;;;5005695;28;20695;-85
2023/01/28 11:10:01;;;;;;;11.70;5.38;;;4.00;72.10;;;;;;4989081;28;20050;-87
2023/01/28 11:12:31;;;;;;;11.45;5.38;;;4.00;71.60;;;;;;4989379;28;20046;-85
2023/01/28 11:15:00;;;;;;;7.35;3.67;;;4.10;71.30;;;;;;4989485;28;20122;-80
2023/01/28 11:17:29;;;;;;;8.68;4.78;;;4.10;71.40;;;;;;5007953;28;20078;-82
2023/01/28 11:19:59;;;;;;;7.70;3.97;;;4.20;71.50;;;;;;5004742;28;20108;-82
2023/01/28 11:22:32;;;;;;;8.68;4.05;;;4.20;71.40;;;;;;5017207;28;20085;-80
2023/01/28 11:25:00;;;;;;;8.90;4.78;;;4.20;71.10;;;;;;5015451;28;20050;-81
2023/01/28 11:27:31;;;;;;;8.43;3.92;;;4.30;71.00;;;;;;5019937;28;20054;-81
2023/01/28 11:30:03;;;;;;;8.35;3.80;;;4.30;70.80;;;;;;5014680;28;20204;-81
2023/01/28 11:32:30;;;;;;;6.63;3.17;;;4.30;71.40;;;;;;4998347;28;20152;-83
2023/01/28 11:34:59;;;;;;;9.65;4.20;;;4.40;71.10;;;;;;4999551;28;20057;-86
2023/01/28 11:37:27;;;;;;;8.52;3.22;;;4.40;71.30;;;;;;4999258;28;20054;-84
2023/01/28 11:40:15;;;;;;;7.05;2.58;;;4.50;71.10;;;;;;4997627;28;20055;-85
2023/01/28 11:42:43;;;;;;;7.45;2.67;;;4.50;70.80;;;;;;5011399;28;20516;-82
2023/01/28 11:45:17;;;;;;;8.07;3.47;;;4.50;70.90;;;;;;5015231;28;20042;-81
2023/01/28 11:48:00;;;;;;;8.75;3.85;;;4.50;70.60;;;;;;5016564;28;20064;-81
2023/01/28 11:50:35;;;;;;;8.80;3.67;;;4.50;71.20;;;;;;5011024;28;20129;-81
2023/01/28 11:53:27;;;;;;;8.75;4.40;;;4.60;71.10;;;;;;5008843;28;20375;-81
2023/01/28 11:56:13;;;;;;;8.98;4.68;;;4.70;70.90;;;;;;4989533;28;20173;-81
2023/01/28 11:58:50;;;;;;;9.20;3.73;;;4.70;70.20;;;;;;4994292;28;20137;-81
2023/01/28 12:01:22;;;;;;;9.50;4.78;;;4.70;69.70;;;;;;5007878;28;20049;-81
2023/01/28 12:04:18;;;;;;;9.77;3.88;;;4.70;70.10;;;;;;5008862;28;20097;-81
2023/01/28 12:07:16;;;;;;;10.02;4.50;;;4.70;69.80;;;;;;4991975;28;20138;-81
2023/01/28 12:09:55;;;;;;;8.52;3.30;;;4.70;69.80;;;;;;5007593;28;20680;-81
2023/01/28 12:13:02;;;;;;;11.37;4.53;;;4.70;70.40;;;;;;5006638;28;20153;-81
2023/01/28 12:16:08;;;;;;;11.23;4.53;;;4.70;70.40;;;;;;4998524;28;20576;-81
2023/01/28 12:18:51;;;;;;;13.07;4.95;;;4.70;70.20;;;;;;5009181;28;21540;-82
2023/01/28 12:21:28;;;;;;;12.60;5.53;;;4.70;69.90;;;;;;5008838;28;20058;-81
2023/01/28 12:24:06;;;;;;;10.65;4.78;;;4.70;70.10;;;;;;5008898;28;20074;-81
2023/01/28 12:26:42;;;;;;;12.87;5.90;;;4.70;70.20;;;;;;5009111;28;20129;-81
2023/01/28 12:29:22;;;;;;;14.60;6.30;;;4.70;70.50;;;;;;5007658;28;20082;-82
2023/01/28 12:32:10;;;;;;;15.68;6.70;;;4.70;70.70;;;;;;5008591;28;20473;-81
2023/01/28 12:35:10;;;;;;;17.52;7.80;;;4.70;70.70;;;;;;5008702;28;20046;-81
2023/01/28 12:37:52;;;;;;;16.33;7.00;;;4.80;70.60;;;;;;4996496;28;20611;-81
2023/01/28 12:40:48;;;;;;;19.00;7.50;;;4.90;70.60;;;;;;5008727;28;20145;-81
2023/01/28 12:43:22;;;;;;;16.58;6.47;;;4.90;70.60;;;;;;5008833;28;20060;-81
2023/01/28 12:45:54;;;;;;;14.60;6.28;;;4.90;70.70;;;;;;5006616;28;20153;-81
2023/01/28 12:48:28;;;;;;;17.13;6.93;;;4.90;71.10;;;;;;5008408;28;20129;-82
2023/01/28 12:50:58;;;;;;;17.95;7.47;;;4.90;71.10;;;;;;5008518;28;20047;-81
2023/01/28 12:53:31;;;;;;;17.70;7.20;;;4.90;71.10;;;;;;5008325;28;20143;-81
2023/01/28 12:56:04;;;;;;;18.02;6.07;;;5.00;71.10;;;;;;5009871;28;20046;-81
2023/01/28 12:58:40;;;;;;;14.32;5.38;;;5.00;70.90;;;;;;5009937;28;20761;-82
2023/01/28 13:01:12;;;;;;;8.05;2.95;;;5.00;70.30;;;;;;5003166;28;20600;-82
2023/01/28 13:03:49;;;;;;;13.15;5.22;;;4.90;70.50;;;;;;5006296;28;20057;-81
2023/01/28 13:06:22;;;;;;;11.87;5.30;;;4.90;70.70;;;;;;5008077;28;20125;-81
2023/01/28 13:08:50;;;;;;;13.38;5.63;;;4.90;71.10;;;;;;5007977;28;20481;-81
2023/01/28 13:11:18;;;;;;;10.93;4.60;;;4.90;71.30;;;;;;5008615;28;20054;-81
2023/01/28 13:13:46;;;;;;;10.40;3.53;;;4.90;70.40;;;;;;5000476;28;20153;-81
2023/01/28 13:16:14;;;;;;;12.48;5.13;;;5.00;70.00;;;;;;5008331;28;20125;-80
2023/01/28 13:18:46;;;;;;;11.00;4.20;;;4.90;70.20;;;;;;5007968;28;20564;-81
2023/01/28 13:21:17;;;;;;;8.60;3.05;;;4.90;70.10;;;;;;5007103;28;20080;-81
2023/01/28 13:23:45;;;;;;;7.78;3.20;;;4.90;70.10;;;;;;5008054;28;20129;-82
2023/01/28 13:26:29;;;;;;;12.90;5.50;;;4.90;70.70;;;;;;5008257;28;20046;-80
2023/01/28 13:29:09;;;;;;;7.13;2.97;;;4.80;70.80;;;;;;5007677;28;20086;-81
2023/01/28 13:31:41;;;;;;;6.90;2.50;;;4.90;71.00;;;;;;5006544;28;20065;-81
2023/01/28 13:34:28;;;;;;;11.00;3.97;;;4.90;71.00;;;;;;5007133;28;20074;-81
2023/01/28 13:36:57;;;;;;;11.15;4.38;;;4.90;70.70;;;;;;5006442;28;20109;-81
2023/01/28 13:39:26;;;;;;;7.50;2.47;;;4.90;70.50;;;;;;5006520;28;20140;-81
2023/01/28 13:41:54;;;;;;;10.45;4.05;;;4.90;70.60;;;;;;5006513;28;20050;-78
2023/01/28 13:44:28;;;;;;;7.50;3.43;;;4.90;70.50;;;;;;5007254;28;20070;-79
2023/01/28 13:46:57;;;;;;;4.18;1.90;;;4.90;71.10;;;;;;5016826;28;20084;-84